sensor_id;sensor_type;location;lat;lon;timestamp;temperature;humidity
37456;DHT22;23316;50.718;7.328;2024-03-23T00:54:08;23.00;38.00
37456;DHT22;23316;50.718;7.328;2024-03-23T00:56:35;23.00;37.90
37456;DHT22;23316;50.718;7.328;2024-03-23T00:59:01;23.00;37.90
37456;DHT22;23316;50.718;7.328;2024-03-23T01:01:28;23.00;37.90
37456;DHT22;23316;50.718;7.328;2024-03-23T01:03:55;23.00;37.90
37456;DHT22;23316;50.718;7.328;2024-03-23T01:06:22;23.00;37.90
37456;DHT22;23316;50.718;7.328;2024-03-23T01:08:48;23.00;37.90
37456;DHT22;23316;50.718;7.328;2024-03-23T01:11:17;23.00;37.90
37456;DHT22;23316;50.718;7.328;2024-03-23T01:13:43;23.00;37.90
37456;DHT22;23316;50.718;7.328;2024-03-23T01:16:10;23.00;37.90
37456;DHT22;23316;50.718;7.328;2024-03-23T01:18:37;23.00;37.90
37456;DHT22;23316;50.718;7.328;2024-03-23T01:21:04;22.90;37.80
37456;DHT22;23316;50.718;7.328;2024-03-23T01:23:30;22.90;37.80
37456;DHT22;23316;50.718;7.328;2024-03-23T01:25:57;22.90;37.90
37456;DHT22;23316;50.718;7.328;2024-03-23T01:28:25;22.90;37.80
37456;DHT22;23316;50.718;7.328;2024-03-23T01:30:52;22.90;37.80
37456;DHT22;23316;50.718;7.328;2024-03-23T01:33:18;22.90;37.80
37456;DHT22;23316;50.718;7.328;2024-03-23T01:35:46;22.90;38.30
37456;DHT22;23316;50.718;7.328;2024-03-23T01:38:12;22.80;37.70
37456;DHT22;23316;50.718;7.328;2024-03-23T01:40:39;22.80;37.70
37456;DHT22;23316;50.718;7.328;2024-03-23T01:43:07;22.80;37.70
37456;DHT22;23316;50.718;7.328;2024-03-23T01:45:36;22.70;37.70
37456;DHT22;23316;50.718;7.328;2024-03-23T01:48:03;22.80;37.80
37456;DHT22;23316;50.718;7.328;2024-03-23T01:50:31;22.80;37.90
37456;DHT22;23316;50.718;7.328;2024-03-23T01:53:00;22.80;38.00
37456;DHT22;23316;50.718;7.328;2024-03-23T01:55:29;22.80;38.00
37456;DHT22;23316;50.718;7.328;2024-03-23T01:57:56;22.80;38.00
37456;DHT22;23316;50.718;7.328;2024-03-23T02:00:24;22.90;38.10
37456;DHT22;23316;50.718;7.328;2024-03-23T02:02:52;22.90;38.00
37456;DHT22;23316;50.718;7.328;2024-03-23T02:05:19;22.90;38.00
37456;DHT22;23316;50.718;7.328;2024-03-23T02:07:46;22.90;37.90
37456;DHT22;23316;50.718;7.328;2024-03-23T02:10:13;22.90;37.90
37456;DHT22;23316;50.718;7.328;2024-03-23T02:12:39;23.00;38.00
37456;DHT22;23316;50.718;7.328;2024-03-23T02:15:07;23.00;38.00
37456;DHT22;23316;50.718;7.328;2024-03-23T02:17:35;23.00;38.00
37456;DHT22;23316;50.718;7.328;2024-03-23T02:20:04;23.00;37.90
37456;DHT22;23316;50.718;7.328;2024-03-23T02:22:36;23.00;38.00
37456;DHT22;23316;50.718;7.328;2024-03-23T02:25:06;23.00;38.00
37456;DHT22;23316;50.718;7.328;2024-03-23T02:27:33;23.00;37.90
37456;DHT22;23316;50.718;7.328;2024-03-23T02:30:02;23.00;37.80
37456;DHT22;23316;50.718;7.328;2024-03-23T02:32:28;23.00;37.70
37456;DHT22;23316;50.718;7.328;2024-03-23T02:34:55;23.00;37.70
37456;DHT22;23316;50.718;7.328;2024-03-23T02:37:21;23.00;37.70
37456;DHT22;23316;50.718;7.328;2024-03-23T02:39:49;23.00;37.60
37456;DHT22;23316;50.718;7.328;2024-03-23T02:42:16;23.00;37.60
37456;DHT22;23316;50.718;7.328;2024-03-23T02:44:44;23.00;37.60
37456;DHT22;23316;50.718;7.328;2024-03-23T02:47:10;23.00;38.10
37456;DHT22;23316;50.718;7.328;2024-03-23T02:49:38;23.00;37.50
37456;DHT22;23316;50.718;7.328;2024-03-23T02:52:05;23.00;37.50
37456;DHT22;23316;50.718;7.328;2024-03-23T02:54:33;23.00;37.50
37456;DHT22;23316;50.718;7.328;2024-03-23T03:29:46;22.60;37.50
37456;DHT22;23316;50.718;7.328;2024-03-23T04:43:43;22.50;37.20
37456;DHT22;23316;50.718;7.328;2024-03-23T04:46:10;22.60;37.40
37456;DHT22;23316;50.718;7.328;2024-03-23T04:48:37;22.50;37.20
37456;DHT22;23316;50.718;7.328;2024-03-23T04:51:05;22.60;37.30
37456;DHT22;23316;50.718;7.328;2024-03-23T04:53:32;22.50;37.20
37456;DHT22;23316;50.718;7.328;2024-03-23T04:55:59;22.50;37.70
37456;DHT22;23316;50.718;7.328;2024-03-23T04:58:26;22.50;37.20
37456;DHT22;23316;50.718;7.328;2024-03-23T05:00:57;22.50;37.30
37456;DHT22;23316;50.718;7.328;2024-03-23T05:03:24;22.50;37.10
37456;DHT22;23316;50.718;7.328;2024-03-23T05:05:51;22.50;37.10
37456;DHT22;23316;50.718;7.328;2024-03-23T05:08:18;22.60;37.30
37456;DHT22;23316;50.718;7.328;2024-03-23T05:10:45;22.50;37.30
37456;DHT22;23316;50.718;7.328;2024-03-23T05:13:11;22.50;37.40
37456;DHT22;23316;50.718;7.328;2024-03-23T05:15:39;22.60;37.30
37456;DHT22;23316;50.718;7.328;2024-03-23T05:18:07;22.60;37.70
37456;DHT22;23316;50.718;7.328;2024-03-23T05:20:34;22.70;37.20
37456;DHT22;23316;50.718;7.328;2024-03-23T05:23:00;22.70;37.10
37456;DHT22;23316;50.718;7.328;2024-03-23T05:25:27;22.70;37.10
37456;DHT22;23316;50.718;7.328;2024-03-23T05:27:53;22.70;37.00
37456;DHT22;23316;50.718;7.328;2024-03-23T05:30:21;22.70;37.00
37456;DHT22;23316;50.718;7.328;2024-03-23T05:32:47;22.80;37.00
37456;DHT22;23316;50.718;7.328;2024-03-23T05:35:16;22.70;37.10
37456;DHT22;23316;50.718;7.328;2024-03-23T05:37:43;22.80;37.00
37456;DHT22;23316;50.718;7.328;2024-03-23T05:40:11;22.80;37.00
37456;DHT22;23316;50.718;7.328;2024-03-23T05:42:38;22.80;36.80
37456;DHT22;23316;50.718;7.328;2024-03-23T05:45:06;22.80;36.90
37456;DHT22;23316;50.718;7.328;2024-03-23T05:47:34;22.80;36.80
37456;DHT22;23316;50.718;7.328;2024-03-23T05:50:01;22.90;36.90
37456;DHT22;23316;50.718;7.328;2024-03-23T05:52:29;22.80;36.80
37456;DHT22;23316;50.718;7.328;2024-03-23T05:54:56;22.90;37.00
37456;DHT22;23316;50.718;7.328;2024-03-23T05:57:24;22.90;37.10
37456;DHT22;23316;50.718;7.328;2024-03-23T05:59:51;22.90;37.10
37456;DHT22;23316;50.718;7.328;2024-03-23T06:02:18;22.90;37.00
37456;DHT22;23316;50.718;7.328;2024-03-23T06:04:45;22.90;37.00
37456;DHT22;23316;50.718;7.328;2024-03-23T06:07:12;22.90;37.00
37456;DHT22;23316;50.718;7.328;2024-03-23T06:09:41;22.90;37.00
37456;DHT22;23316;50.718;7.328;2024-03-23T06:12:08;22.90;36.90
37456;DHT22;23316;50.718;7.328;2024-03-23T06:14:35;22.90;36.60
37456;DHT22;23316;50.718;7.328;2024-03-23T06:17:01;22.90;36.40
37456;DHT22;23316;50.718;7.328;2024-03-23T06:19:29;22.90;36.30
37456;DHT22;23316;50.718;7.328;2024-03-23T06:21:55;22.90;36.30
37456;DHT22;23316;50.718;7.328;2024-03-23T06:24:22;22.90;36.20
37456;DHT22;23316;50.718;7.328;2024-03-23T06:26:50;22.90;36.20
37456;DHT22;23316;50.718;7.328;2024-03-23T06:29:17;22.80;36.40
37456;DHT22;23316;50.718;7.328;2024-03-23T06:31:43;22.80;36.60
37456;DHT22;23316;50.718;7.328;2024-03-23T06:34:11;22.80;36.10
37456;DHT22;23316;50.718;7.328;2024-03-23T07:45:35;22.50;36.20
37456;DHT22;23316;50.718;7.328;2024-03-23T07:48:04;22.50;36.10
37456;DHT22;23316;50.718;7.328;2024-03-23T07:50:30;22.60;36.10
37456;DHT22;23316;50.718;7.328;2024-03-23T07:52:57;22.60;36.20
37456;DHT22;23316;50.718;7.328;2024-03-23T07:55:23;22.60;36.20
37456;DHT22;23316;50.718;7.328;2024-03-23T07:57:51;22.60;36.10
37456;DHT22;23316;50.718;7.328;2024-03-23T08:00:18;22.60;36.10
37456;DHT22;23316;50.718;7.328;2024-03-23T08:02:46;22.60;36.20
37456;DHT22;23316;50.718;7.328;2024-03-23T08:05:13;22.60;36.30
37456;DHT22;23316;50.718;7.328;2024-03-23T08:07:40;22.70;36.30
37456;DHT22;23316;50.718;7.328;2024-03-23T08:10:07;22.60;36.10
37456;DHT22;23316;50.718;7.328;2024-03-23T08:12:34;22.60;35.90
37456;DHT22;23316;50.718;7.328;2024-03-23T08:15:00;22.70;35.80
37456;DHT22;23316;50.718;7.328;2024-03-23T08:17:27;22.70;35.80
37456;DHT22;23316;50.718;7.328;2024-03-23T08:19:55;22.70;35.60
37456;DHT22;23316;50.718;7.328;2024-03-23T08:22:22;22.70;35.20
37456;DHT22;23316;50.718;7.328;2024-03-23T08:24:48;22.60;35.40
37456;DHT22;23316;50.718;7.328;2024-03-23T08:27:16;22.60;35.60
37456;DHT22;23316;50.718;7.328;2024-03-23T08:29:42;22.60;35.70
37456;DHT22;23316;50.718;7.328;2024-03-23T08:32:09;22.60;35.70
37456;DHT22;23316;50.718;7.328;2024-03-23T08:34:35;22.60;35.70
37456;DHT22;23316;50.718;7.328;2024-03-23T08:37:04;22.60;35.60
37456;DHT22;23316;50.718;7.328;2024-03-23T08:39:30;22.60;35.20
37456;DHT22;23316;50.718;7.328;2024-03-23T08:41:58;22.50;35.10
37456;DHT22;23316;50.718;7.328;2024-03-23T08:44:24;22.60;35.10
37456;DHT22;23316;50.718;7.328;2024-03-23T08:46:51;22.60;35.20
37456;DHT22;23316;50.718;7.328;2024-03-23T08:49:17;22.60;35.40
37456;DHT22;23316;50.718;7.328;2024-03-23T08:51:46;22.60;35.70
37456;DHT22;23316;50.718;7.328;2024-03-23T08:54:13;22.60;35.80
37456;DHT22;23316;50.718;7.328;2024-03-23T08:56:41;22.60;36.00
37456;DHT22;23316;50.718;7.328;2024-03-23T08:59:07;22.60;36.00
37456;DHT22;23316;50.718;7.328;2024-03-23T09:01:34;22.70;36.00
37456;DHT22;23316;50.718;7.328;2024-03-23T09:04:00;22.70;35.90
37456;DHT22;23316;50.718;7.328;2024-03-23T09:06:27;22.80;35.90
37456;DHT22;23316;50.718;7.328;2024-03-23T09:08:54;22.80;36.00
37456;DHT22;23316;50.718;7.328;2024-03-23T09:11:22;22.90;35.90
37456;DHT22;23316;50.718;7.328;2024-03-23T09:13:49;22.90;35.80
37456;DHT22;23316;50.718;7.328;2024-03-23T09:16:16;22.90;35.80
37456;DHT22;23316;50.718;7.328;2024-03-23T09:18:42;23.00;35.70
37456;DHT22;23316;50.718;7.328;2024-03-23T09:21:11;23.00;35.60
37456;DHT22;23316;50.718;7.328;2024-03-23T09:23:39;23.00;35.50
37456;DHT22;23316;50.718;7.328;2024-03-23T09:26:06;23.00;35.50
37456;DHT22;23316;50.718;7.328;2024-03-23T09:28:34;23.00;35.50
37456;DHT22;23316;50.718;7.328;2024-03-23T09:31:05;23.10;35.60
37456;DHT22;23316;50.718;7.328;2024-03-23T09:33:31;23.00;35.70
37456;DHT22;23316;50.718;7.328;2024-03-23T09:36:03;23.10;35.70
37456;DHT22;23316;50.718;7.328;2024-03-23T09:38:29;23.10;35.60
37456;DHT22;23316;50.718;7.328;2024-03-23T09:40:57;23.10;35.40
37456;DHT22;23316;50.718;7.328;2024-03-23T09:43:24;23.10;35.40
37456;DHT22;23316;50.718;7.328;2024-03-23T09:45:53;23.10;35.20
37456;DHT22;23316;50.718;7.328;2024-03-23T09:48:19;23.10;35.20
37456;DHT22;23316;50.718;7.328;2024-03-23T09:50:46;23.10;35.20
37456;DHT22;23316;50.718;7.328;2024-03-23T09:53:14;23.00;35.20
37456;DHT22;23316;50.718;7.328;2024-03-23T09:55:43;23.00;35.20
37456;DHT22;23316;50.718;7.328;2024-03-23T09:58:12;23.00;35.20
37456;DHT22;23316;50.718;7.328;2024-03-23T10:00:40;23.00;35.20
37456;DHT22;23316;50.718;7.328;2024-03-23T10:03:08;23.00;35.10
37456;DHT22;23316;50.718;7.328;2024-03-23T10:05:37;23.00;35.20
37456;DHT22;23316;50.718;7.328;2024-03-23T10:08:17;23.00;35.20
37456;DHT22;23316;50.718;7.328;2024-03-23T10:10:45;23.00;35.30
37456;DHT22;23316;50.718;7.328;2024-03-23T10:13:24;23.00;35.20
37456;DHT22;23316;50.718;7.328;2024-03-23T10:15:55;23.00;35.00
37456;DHT22;23316;50.718;7.328;2024-03-23T10:18:25;23.00;34.90
37456;DHT22;23316;50.718;7.328;2024-03-23T10:21:07;22.90;34.80
37456;DHT22;23316;50.718;7.328;2024-03-23T10:23:34;22.90;34.60
37456;DHT22;23316;50.718;7.328;2024-03-23T10:26:13;22.90;34.80
37456;DHT22;23316;50.718;7.328;2024-03-23T10:28:54;22.90;34.80
37456;DHT22;23316;50.718;7.328;2024-03-23T10:31:22;22.90;34.80
37456;DHT22;23316;50.718;7.328;2024-03-23T10:33:50;22.90;34.90
37456;DHT22;23316;50.718;7.328;2024-03-23T10:36:21;23.00;34.80
37456;DHT22;23316;50.718;7.328;2024-03-23T10:38:47;23.00;34.70
37456;DHT22;23316;50.718;7.328;2024-03-23T10:41:16;23.00;34.60
37456;DHT22;23316;50.718;7.328;2024-03-23T10:43:44;23.00;34.60
37456;DHT22;23316;50.718;7.328;2024-03-23T10:46:12;23.10;34.60
37456;DHT22;23316;50.718;7.328;2024-03-23T10:48:39;23.10;34.30
37456;DHT22;23316;50.718;7.328;2024-03-23T10:51:08;23.10;34.10
37456;DHT22;23316;50.718;7.328;2024-03-23T10:53:36;23.10;33.60
37456;DHT22;23316;50.718;7.328;2024-03-23T10:56:04;23.10;33.30
37456;DHT22;23316;50.718;7.328;2024-03-23T10:58:37;23.10;32.80
37456;DHT22;23316;50.718;7.328;2024-03-23T11:01:05;23.00;32.50
37456;DHT22;23316;50.718;7.328;2024-03-23T11:03:35;23.00;32.40
37456;DHT22;23316;50.718;7.328;2024-03-23T11:06:04;23.00;32.30
37456;DHT22;23316;50.718;7.328;2024-03-23T11:08:33;22.90;32.10
37456;DHT22;23316;50.718;7.328;2024-03-23T11:11:20;22.80;31.90
37456;DHT22;23316;50.718;7.328;2024-03-23T11:13:48;22.80;31.60
37456;DHT22;23316;50.718;7.328;2024-03-23T11:16:16;22.70;31.80
37456;DHT22;23316;50.718;7.328;2024-03-23T11:18:44;22.60;31.90
37456;DHT22;23316;50.718;7.328;2024-03-23T11:21:11;22.50;31.90
37456;DHT22;23316;50.718;7.328;2024-03-23T11:24:14;22.50;32.00
37456;DHT22;23316;50.718;7.328;2024-03-23T11:26:41;22.40;31.90
37456;DHT22;23316;50.718;7.328;2024-03-23T11:29:11;22.40;32.10
37456;DHT22;23316;50.718;7.328;2024-03-23T11:31:38;22.40;32.20
37456;DHT22;23316;50.718;7.328;2024-03-23T11:34:05;22.40;32.40
37456;DHT22;23316;50.718;7.328;2024-03-23T11:36:32;22.40;32.90
37456;DHT22;23316;50.718;7.328;2024-03-23T11:38:59;22.30;32.30
37456;DHT22;23316;50.718;7.328;2024-03-23T11:41:47;22.30;32.40
37456;DHT22;23316;50.718;7.328;2024-03-23T11:44:21;22.30;32.40
37456;DHT22;23316;50.718;7.328;2024-03-23T11:46:49;22.30;32.50
37456;DHT22;23316;50.718;7.328;2024-03-23T11:49:22;22.30;32.70
37456;DHT22;23316;50.718;7.328;2024-03-23T11:51:51;22.20;32.50
37456;DHT22;23316;50.718;7.328;2024-03-23T11:54:20;22.30;32.50
37456;DHT22;23316;50.718;7.328;2024-03-23T11:56:56;22.30;32.40
37456;DHT22;23316;50.718;7.328;2024-03-23T11:59:32;22.30;32.20
37456;DHT22;23316;50.718;7.328;2024-03-23T12:02:00;22.20;32.10
37456;DHT22;23316;50.718;7.328;2024-03-23T12:04:27;22.20;32.20
37456;DHT22;23316;50.718;7.328;2024-03-23T12:07:10;22.20;32.20
37456;DHT22;23316;50.718;7.328;2024-03-23T12:09:36;22.20;32.10
37456;DHT22;23316;50.718;7.328;2024-03-23T12:12:14;22.20;32.20
37456;DHT22;23316;50.718;7.328;2024-03-23T12:14:41;22.20;31.90
37456;DHT22;23316;50.718;7.328;2024-03-23T12:17:10;22.20;31.90
37456;DHT22;23316;50.718;7.328;2024-03-23T12:19:36;22.20;31.90
37456;DHT22;23316;50.718;7.328;2024-03-23T12:22:04;22.10;31.70
37456;DHT22;23316;50.718;7.328;2024-03-23T12:24:31;22.10;31.70
37456;DHT22;23316;50.718;7.328;2024-03-23T12:27:01;22.10;31.70
37456;DHT22;23316;50.718;7.328;2024-03-23T12:29:30;22.00;31.60
37456;DHT22;23316;50.718;7.328;2024-03-23T12:31:59;22.00;31.50
37456;DHT22;23316;50.718;7.328;2024-03-23T12:34:26;21.90;31.60
37456;DHT22;23316;50.718;7.328;2024-03-23T12:36:53;21.90;31.80
37456;DHT22;23316;50.718;7.328;2024-03-23T12:39:19;21.90;31.80
37456;DHT22;23316;50.718;7.328;2024-03-23T12:41:47;21.80;31.80
37456;DHT22;23316;50.718;7.328;2024-03-23T12:44:13;21.80;31.90
37456;DHT22;23316;50.718;7.328;2024-03-23T12:46:42;21.80;31.90
37456;DHT22;23316;50.718;7.328;2024-03-23T12:49:08;21.70;31.80
37456;DHT22;23316;50.718;7.328;2024-03-23T12:51:36;21.70;31.80
37456;DHT22;23316;50.718;7.328;2024-03-23T12:54:02;21.70;31.90
37456;DHT22;23316;50.718;7.328;2024-03-23T12:56:30;21.70;31.80
37456;DHT22;23316;50.718;7.328;2024-03-23T12:58:56;21.70;31.80
37456;DHT22;23316;50.718;7.328;2024-03-23T13:01:24;21.60;31.80
37456;DHT22;23316;50.718;7.328;2024-03-23T13:03:51;21.60;31.90
37456;DHT22;23316;50.718;7.328;2024-03-23T13:06:19;21.60;32.00
37456;DHT22;23316;50.718;7.328;2024-03-23T13:08:45;21.50;32.00
37456;DHT22;23316;50.718;7.328;2024-03-23T13:11:13;21.50;32.20
37456;DHT22;23316;50.718;7.328;2024-03-23T13:13:41;21.50;32.40
37456;DHT22;23316;50.718;7.328;2024-03-23T13:16:08;21.50;32.70
37456;DHT22;23316;50.718;7.328;2024-03-23T13:18:35;21.50;33.20
37456;DHT22;23316;50.718;7.328;2024-03-23T13:21:04;21.50;32.70
37456;DHT22;23316;50.718;7.328;2024-03-23T13:23:30;21.60;32.90
37456;DHT22;23316;50.718;7.328;2024-03-23T13:25:58;21.60;33.10
37456;DHT22;23316;50.718;7.328;2024-03-23T13:28:24;21.60;33.10
37456;DHT22;23316;50.718;7.328;2024-03-23T13:30:52;21.70;33.20
37456;DHT22;23316;50.718;7.328;2024-03-23T13:33:19;21.70;33.30
37456;DHT22;23316;50.718;7.328;2024-03-23T13:35:49;21.70;33.30
37456;DHT22;23316;50.718;7.328;2024-03-23T13:38:17;21.80;33.10
37456;DHT22;23316;50.718;7.328;2024-03-23T13:40:51;21.80;33.10
37456;DHT22;23316;50.718;7.328;2024-03-23T13:43:18;21.90;33.20
37456;DHT22;23316;50.718;7.328;2024-03-23T13:45:45;21.90;33.20
37456;DHT22;23316;50.718;7.328;2024-03-23T13:48:12;21.90;33.10
37456;DHT22;23316;50.718;7.328;2024-03-23T13:50:39;21.90;33.10
37456;DHT22;23316;50.718;7.328;2024-03-23T13:53:05;22.00;33.00
37456;DHT22;23316;50.718;7.328;2024-03-23T13:55:35;22.00;33.00
37456;DHT22;23316;50.718;7.328;2024-03-23T13:58:01;22.00;33.10
37456;DHT22;23316;50.718;7.328;2024-03-23T14:00:30;22.00;32.90
37456;DHT22;23316;50.718;7.328;2024-03-23T14:02:58;22.10;32.70
37456;DHT22;23316;50.718;7.328;2024-03-23T14:05:25;22.00;32.60
37456;DHT22;23316;50.718;7.328;2024-03-23T14:07:52;22.00;32.60
37456;DHT22;23316;50.718;7.328;2024-03-23T14:10:19;22.10;32.80
37456;DHT22;23316;50.718;7.328;2024-03-23T14:12:47;22.10;32.80
37456;DHT22;23316;50.718;7.328;2024-03-23T14:15:15;22.00;32.70
37456;DHT22;23316;50.718;7.328;2024-03-23T14:17:41;22.00;32.90
37456;DHT22;23316;50.718;7.328;2024-03-23T14:20:10;22.00;33.10
37456;DHT22;23316;50.718;7.328;2024-03-23T14:22:37;22.00;33.30
37456;DHT22;23316;50.718;7.328;2024-03-23T14:25:07;22.10;33.40
37456;DHT22;23316;50.718;7.328;2024-03-23T14:27:34;22.10;33.50
37456;DHT22;23316;50.718;7.328;2024-03-23T14:30:05;22.10;33.50
37456;DHT22;23316;50.718;7.328;2024-03-23T14:32:32;22.10;33.60
37456;DHT22;23316;50.718;7.328;2024-03-23T14:35:00;22.10;33.60
37456;DHT22;23316;50.718;7.328;2024-03-23T14:37:27;22.10;33.60
37456;DHT22;23316;50.718;7.328;2024-03-23T14:39:55;22.10;33.70
37456;DHT22;23316;50.718;7.328;2024-03-23T14:42:22;22.10;33.70
37456;DHT22;23316;50.718;7.328;2024-03-23T14:44:49;22.10;33.70
37456;DHT22;23316;50.718;7.328;2024-03-23T14:47:17;22.10;33.70
37456;DHT22;23316;50.718;7.328;2024-03-23T14:49:44;22.10;33.80
37456;DHT22;23316;50.718;7.328;2024-03-23T14:52:13;22.10;33.70
37456;DHT22;23316;50.718;7.328;2024-03-23T14:54:40;22.10;33.70
37456;DHT22;23316;50.718;7.328;2024-03-23T14:57:06;22.10;33.80
37456;DHT22;23316;50.718;7.328;2024-03-23T14:59:35;22.10;33.70
37456;DHT22;23316;50.718;7.328;2024-03-23T15:02:01;22.00;33.70
37456;DHT22;23316;50.718;7.328;2024-03-23T15:04:29;22.10;33.70
37456;DHT22;23316;50.718;7.328;2024-03-23T15:06:56;22.00;33.70
37456;DHT22;23316;50.718;7.328;2024-03-23T15:09:23;22.00;33.50
37456;DHT22;23316;50.718;7.328;2024-03-23T15:11:49;22.00;33.40
37456;DHT22;23316;50.718;7.328;2024-03-23T15:14:16;22.00;33.30
37456;DHT22;23316;50.718;7.328;2024-03-23T15:16:42;21.90;33.30
37456;DHT22;23316;50.718;7.328;2024-03-23T15:19:09;21.90;33.40
37456;DHT22;23316;50.718;7.328;2024-03-23T15:21:37;21.90;33.40
37456;DHT22;23316;50.718;7.328;2024-03-23T15:24:05;21.90;33.40
37456;DHT22;23316;50.718;7.328;2024-03-23T15:26:31;21.90;33.80
37456;DHT22;23316;50.718;7.328;2024-03-23T15:28:58;21.90;34.20
37456;DHT22;23316;50.718;7.328;2024-03-23T15:31:37;21.90;34.40
37456;DHT22;23316;50.718;7.328;2024-03-23T15:34:04;21.90;34.70
37456;DHT22;23316;50.718;7.328;2024-03-23T15:36:31;21.90;34.80
37456;DHT22;23316;50.718;7.328;2024-03-23T15:38:59;22.00;34.90
37456;DHT22;23316;50.718;7.328;2024-03-23T15:41:26;22.00;34.90
37456;DHT22;23316;50.718;7.328;2024-03-23T15:43:53;22.00;34.90
37456;DHT22;23316;50.718;7.328;2024-03-23T15:46:19;22.10;34.90
37456;DHT22;23316;50.718;7.328;2024-03-23T15:48:46;22.10;34.90
37456;DHT22;23316;50.718;7.328;2024-03-23T15:51:13;22.10;34.90
37456;DHT22;23316;50.718;7.328;2024-03-23T15:53:41;22.20;35.10
37456;DHT22;23316;50.718;7.328;2024-03-23T15:56:08;22.20;35.10
37456;DHT22;23316;50.718;7.328;2024-03-23T15:58:36;22.30;35.10
37456;DHT22;23316;50.718;7.328;2024-03-23T16:01:04;22.30;35.00
37456;DHT22;23316;50.718;7.328;2024-03-23T16:03:31;22.30;34.90
37456;DHT22;23316;50.718;7.328;2024-03-23T16:05:59;22.40;34.90
37456;DHT22;23316;50.718;7.328;2024-03-23T16:08:27;22.40;34.20
37456;DHT22;23316;50.718;7.328;2024-03-23T16:10:54;22.40;34.00
37456;DHT22;23316;50.718;7.328;2024-03-23T16:13:23;22.40;34.10
37456;DHT22;23316;50.718;7.328;2024-03-23T16:15:55;22.40;34.20
37456;DHT22;23316;50.718;7.328;2024-03-23T16:18:22;22.40;34.20
37456;DHT22;23316;50.718;7.328;2024-03-23T16:20:53;22.40;34.20
37456;DHT22;23316;50.718;7.328;2024-03-23T16:23:20;22.40;34.30
37456;DHT22;23316;50.718;7.328;2024-03-23T16:25:47;22.40;34.30
37456;DHT22;23316;50.718;7.328;2024-03-23T16:28:26;22.40;34.30
37456;DHT22;23316;50.718;7.328;2024-03-23T16:30:55;22.40;34.40
37456;DHT22;23316;50.718;7.328;2024-03-23T16:33:22;22.40;35.00
37456;DHT22;23316;50.718;7.328;2024-03-23T16:35:56;22.40;34.60
37456;DHT22;23316;50.718;7.328;2024-03-23T16:38:23;22.40;34.40
37456;DHT22;23316;50.718;7.328;2024-03-23T16:40:54;22.40;34.50
37456;DHT22;23316;50.718;7.328;2024-03-23T16:43:20;22.40;34.60
37456;DHT22;23316;50.718;7.328;2024-03-23T16:45:53;22.40;34.70
37456;DHT22;23316;50.718;7.328;2024-03-23T16:48:20;22.40;34.60
37456;DHT22;23316;50.718;7.328;2024-03-23T16:50:48;22.40;34.70
37456;DHT22;23316;50.718;7.328;2024-03-23T16:53:14;22.40;34.70
37456;DHT22;23316;50.718;7.328;2024-03-23T16:55:41;22.40;34.60
37456;DHT22;23316;50.718;7.328;2024-03-23T16:58:08;22.40;34.60
37456;DHT22;23316;50.718;7.328;2024-03-23T17:00:35;22.30;34.50
37456;DHT22;23316;50.718;7.328;2024-03-23T17:03:03;22.40;34.70
37456;DHT22;23316;50.718;7.328;2024-03-23T17:05:36;22.30;34.50
37456;DHT22;23316;50.718;7.328;2024-03-23T17:08:04;22.30;34.40
37456;DHT22;23316;50.718;7.328;2024-03-23T17:10:31;22.30;34.40
37456;DHT22;23316;50.718;7.328;2024-03-23T17:12:58;22.30;34.50
37456;DHT22;23316;50.718;7.328;2024-03-23T17:15:26;22.30;34.60
37456;DHT22;23316;50.718;7.328;2024-03-23T17:17:52;22.30;34.70
37456;DHT22;23316;50.718;7.328;2024-03-23T17:20:21;22.30;34.90
37456;DHT22;23316;50.718;7.328;2024-03-23T17:22:54;22.30;34.90
37456;DHT22;23316;50.718;7.328;2024-03-23T17:25:22;22.30;35.00
37456;DHT22;23316;50.718;7.328;2024-03-23T17:27:48;22.40;34.90
37456;DHT22;23316;50.718;7.328;2024-03-23T17:30:16;22.40;34.80
37456;DHT22;23316;50.718;7.328;2024-03-23T17:32:43;22.40;34.80
37456;DHT22;23316;50.718;7.328;2024-03-23T17:35:10;22.40;34.80
37456;DHT22;23316;50.718;7.328;2024-03-23T17:37:39;22.50;34.80
37456;DHT22;23316;50.718;7.328;2024-03-23T17:40:07;22.50;34.70
37456;DHT22;23316;50.718;7.328;2024-03-23T17:42:34;22.50;34.70
37456;DHT22;23316;50.718;7.328;2024-03-23T17:45:01;22.50;34.60
37456;DHT22;23316;50.718;7.328;2024-03-23T17:47:28;22.50;34.60
37456;DHT22;23316;50.718;7.328;2024-03-23T17:49:55;22.50;34.60
37456;DHT22;23316;50.718;7.328;2024-03-23T17:52:21;22.50;34.60
37456;DHT22;23316;50.718;7.328;2024-03-23T17:54:50;22.50;34.60
37456;DHT22;23316;50.718;7.328;2024-03-23T17:57:16;22.50;34.60
37456;DHT22;23316;50.718;7.328;2024-03-23T17:59:43;22.50;34.60
37456;DHT22;23316;50.718;7.328;2024-03-23T18:02:09;22.50;34.50
37456;DHT22;23316;50.718;7.328;2024-03-23T18:04:37;22.50;34.50
37456;DHT22;23316;50.718;7.328;2024-03-23T18:07:03;22.50;34.50
37456;DHT22;23316;50.718;7.328;2024-03-23T18:09:30;22.50;34.50
37456;DHT22;23316;50.718;7.328;2024-03-23T18:11:58;22.50;34.50
37456;DHT22;23316;50.718;7.328;2024-03-23T18:14:27;22.50;34.40
37456;DHT22;23316;50.718;7.328;2024-03-23T18:16:54;22.50;34.40
37456;DHT22;23316;50.718;7.328;2024-03-23T18:19:21;22.40;34.40
37456;DHT22;23316;50.718;7.328;2024-03-23T18:21:47;22.50;34.50
37456;DHT22;23316;50.718;7.328;2024-03-23T18:24:15;22.40;34.40
37456;DHT22;23316;50.718;7.328;2024-03-23T18:26:41;22.40;34.40
37456;DHT22;23316;50.718;7.328;2024-03-23T18:29:09;22.40;34.30
37456;DHT22;23316;50.718;7.328;2024-03-23T18:31:36;22.40;34.40
37456;DHT22;23316;50.718;7.328;2024-03-23T18:34:04;22.40;34.30
37456;DHT22;23316;50.718;7.328;2024-03-23T18:36:30;22.40;34.40
37456;DHT22;23316;50.718;7.328;2024-03-23T18:38:57;22.40;34.40
37456;DHT22;23316;50.718;7.328;2024-03-23T18:41:23;22.40;34.40
37456;DHT22;23316;50.718;7.328;2024-03-23T18:43:51;22.30;34.30
37456;DHT22;23316;50.718;7.328;2024-03-23T18:46:18;22.30;34.30
37456;DHT22;23316;50.718;7.328;2024-03-23T18:48:46;22.30;34.30
37456;DHT22;23316;50.718;7.328;2024-03-23T18:51:13;22.30;34.30
37456;DHT22;23316;50.718;7.328;2024-03-23T18:53:40;22.30;34.30
37456;DHT22;23316;50.718;7.328;2024-03-23T18:56:07;22.20;34.30
37456;DHT22;23316;50.718;7.328;2024-03-23T18:58:34;22.20;34.30
37456;DHT22;23316;50.718;7.328;2024-03-23T19:01:02;22.20;34.20
37456;DHT22;23316;50.718;7.328;2024-03-23T19:03:32;22.20;34.30
37456;DHT22;23316;50.718;7.328;2024-03-23T19:05:59;22.20;34.30
37456;DHT22;23316;50.718;7.328;2024-03-23T19:08:26;22.20;34.30
37456;DHT22;23316;50.718;7.328;2024-03-23T19:10:53;22.20;34.20
37456;DHT22;23316;50.718;7.328;2024-03-23T19:13:21;22.20;34.30
37456;DHT22;23316;50.718;7.328;2024-03-23T19:15:47;22.20;34.10
37456;DHT22;23316;50.718;7.328;2024-03-23T19:18:15;22.20;34.20
37456;DHT22;23316;50.718;7.328;2024-03-23T19:20:49;22.30;34.20